Time;durP1;ratioP1;P1;durP2;ratioP2;P2;SDS_P1;SDS_P2;PMS_P1;PMS_P2;Temp;Humidity;BMP_temperature;BMP_pressure;BME280_temperature;BME280_humidity;BME280_pressure;Samples;Min_cycle;Max_cycle;Signal;HPM_P1;HPM_P2
2021/06/13 00:01:22;;;;;;;16.30;5.50;;;10.80;84.50;;;;;;5054647;28;20454;-55
2021/06/13 00:03:49;;;;;;;12.70;6.60;;;10.80;84.30;;;;;;5054161;28;20040;-54
2021/06/13 00:06:14;;;;;;;12.93;6.25;;;10.90;84.60;;;;;;5058975;28;20080;-56
2021/06/13 00:08:45;;;;;;;17.10;6.10;;;10.80;84.30;;;;;;5046151;28;20049;-57
2021/06/13 00:11:11;;;;;;;13.77;5.90;;;10.80;84.20;;;;;;5051590;28;20052;-55
2021/06/13 00:13:38;;;;;;;12.90;6.22;;;10.70;84.00;;;;;;5049576;28;20041;-56
2021/06/13 00:16:04;;;;;;;10.40;5.75;;;10.70;84.30;;;;;;5051959;28;20045;-55
2021/06/13 00:18:33;;;;;;;13.30;6.32;;;10.70;84.50;;;;;;5046747;28;20117;-55
2021/06/13 00:20:59;;;;;;;15.23;6.22;;;10.60;84.40;;;;;;5060496;28;20040;-54
2021/06/13 00:23:25;;;;;;;17.15;6.13;;;10.70;85.10;;;;;;5057285;28;20033;-55
2021/06/13 00:25:52;;;;;;;15.57;6.28;;;10.60;84.90;;;;;;5057858;28;20044;-55
2021/06/13 00:28:18;;;;;;;14.07;5.95;;;10.70;85.10;;;;;;5059889;28;20049;-56
2021/06/13 00:30:45;;;;;;;13.95;6.65;;;10.70;84.80;;;;;;5057678;28;20079;-56
2021/06/13 00:33:12;;;;;;;13.55;6.20;;;10.70;84.90;;;;;;5050893;28;20507;-55
2021/06/13 00:35:41;;;;;;;15.70;6.70;;;10.80;85.30;;;;;;5050170;28;20056;-55
2021/06/13 00:38:10;;;;;;;16.33;7.05;;;10.70;85.10;;;;;;5059690;28;20067;-55
2021/06/13 00:40:36;;;;;;;17.10;7.55;;;10.70;85.10;;;;;;5060847;28;20037;-56
2021/06/13 00:43:02;;;;;;;13.93;7.20;;;10.70;85.20;;;;;;5062819;28;20041;-55
2021/06/13 00:45:28;;;;;;;14.55;7.72;;;10.70;85.50;;;;;;5061198;28;20078;-55
2021/06/13 00:47:55;;;;;;;15.55;7.03;;;10.60;85.30;;;;;;5062007;28;20460;-55
2021/06/13 00:50:27;;;;;;;14.80;7.10;;;10.60;85.60;;;;;;5062675;28;20041;-56
2021/06/13 00:52:54;;;;;;;;;;;10.60;85.60;;;;;;5053526;28;20448;-56
2021/06/13 00:55:26;;;;;;;18.90;7.32;;;10.60;85.90;;;;;;5058045;28;19924;-56
2021/06/13 00:57:51;;;;;;;18.35;7.80;;;10.50;85.60;;;;;;5058272;28;20041;-57
2021/06/13 01:00:18;;;;;;;15.82;7.55;;;10.50;85.90;;;;;;5058608;28;20044;-56
2021/06/13 01:02:44;;;;;;;17.33;8.05;;;10.50;86.20;;;;;;5060905;28;20052;-56
2021/06/13 01:05:10;;;;;;;18.25;7.47;;;10.50;86.10;;;;;;5063498;28;20037;-57
2021/06/13 01:07:47;;;;;;;13.30;6.78;;;10.50;86.30;;;;;;5058195;28;20135;-57
2021/06/13 01:10:32;;;;;;;15.52;7.50;;;10.40;86.30;;;;;;5075428;28;20036;-55
2021/06/13 01:13:25;;;;;;;20.10;7.95;;;10.50;86.60;;;;;;5057551;28;20041;-55
2021/06/13 01:16:10;;;;;;;15.07;6.80;;;10.50;86.30;;;;;;5043445;28;20472;-55
2021/06/13 01:18:43;;;;;;;17.08;8.35;;;10.40;85.90;;;;;;5074251;28;20505;-56
2021/06/13 01:21:14;;;;;;;16.45;8.57;;;10.40;86.30;;;;;;5059073;28;20126;-55
2021/06/13 01:23:52;;;;;;;17.52;8.00;;;10.30;86.20;;;;;;5059768;28;20414;-55
2021/06/13 01:26:39;;;;;;;19.45;8.80;;;10.30;86.40;;;;;;5082856;28;20189;-56
2021/06/13 01:29:09;;;;;;;19.58;8.05;;;10.30;86.60;;;;;;5066277;28;20040;-55
2021/06/13 01:31:38;;;;;;;15.48;8.13;;;10.30;86.60;;;;;;5066788;28;20043;-55
2021/06/13 01:34:09;;;;;;;18.02;8.07;;;10.30;86.50;;;;;;5058707;28;20033;-56
2021/06/13 01:36:36;;;;;;;15.25;8.25;;;10.30;87.00;;;;;;5059106;28;20095;-55
2021/06/13 01:39:06;;;;;;;19.70;9.02;;;10.30;86.80;;;;;;5058147;28;20037;-55
2021/06/13 01:41:35;;;;;;;16.63;8.90;;;10.30;87.20;;;;;;5054297;28;20095;-55
2021/06/13 01:44:02;;;;;;;15.68;8.30;;;10.40;87.10;;;;;;5056676;28;20069;-55
2021/06/13 01:46:32;;;;;;;15.52;8.25;;;10.30;87.00;;;;;;5058485;28;20041;-55
2021/06/13 01:48:59;;;;;;;16.23;9.00;;;10.30;87.00;;;;;;5055601;28;20048;-55
2021/06/13 01:51:25;;;;;;;17.98;8.68;;;10.30;87.30;;;;;;5057016;28;20049;-55
2021/06/13 01:53:51;;;;;;;18.80;9.88;;;10.30;87.80;;;;;;5057530;28;20045;-55
2021/06/13 01:56:19;;;;;;;16.85;9.65;;;10.40;87.70;;;;;;5053867;28;20053;-55
2021/06/13 01:58:46;;;;;;;20.10;10.23;;;10.40;88.00;;;;;;5049436;28;20481;-56
2021/06/13 02:01:19;;;;;;;16.73;9.85;;;10.40;87.80;;;;;;5088316;28;20041;-56
2021/06/13 02:03:47;;;;;;;;;;;10.40;87.80;;;;;;5076132;28;20451;-56
2021/06/13 02:06:13;;;;;;;15.88;7.68;;;10.40;87.40;;;;;;5065310;28;20011;-56
2021/06/13 02:08:40;;;;;;;16.65;7.43;;;10.30;86.90;;;;;;5041224;28;20059;-55
2021/06/13 02:11:08;;;;;;;19.00;7.97;;;10.20;86.50;;;;;;5042408;28;20061;-54
2021/06/13 02:13:36;;;;;;;15.30;8.57;;;10.10;86.50;;;;;;5039517;28;20096;-55
2021/06/13 02:16:05;;;;;;;18.52;9.63;;;10.10;86.90;;;;;;5060121;28;20099;-51
2021/06/13 02:18:32;;;;;;;23.65;11.45;;;10.00;87.30;;;;;;5067716;28;20135;-53
2021/06/13 02:21:06;;;;;;;22.23;11.25;;;10.00;87.50;;;;;;5058019;28;20087;-53
2021/06/13 02:23:33;;;;;;;16.92;9.57;;;10.00;88.10;;;;;;5055868;28;20552;-54
2021/06/13 02:26:00;;;;;;;19.00;9.60;;;10.00;87.80;;;;;;5057158;28;20067;-52
2021/06/13 02:28:30;;;;;;;14.98;8.85;;;9.90;87.80;;;;;;5055637;28;20045;-51
2021/06/13 02:30:57;;;;;;;16.80;8.82;;;9.90;88.00;;;;;;5065123;28;20471;-54
2021/06/13 02:33:25;;;;;;;20.27;9.15;;;9.80;87.90;;;;;;5026799;28;20045;-53
2021/06/13 02:35:53;;;;;;;20.83;10.10;;;9.80;88.10;;;;;;5041995;28;20073;-54
2021/06/13 02:38:20;;;;;;;18.45;10.40;;;9.80;88.20;;;;;;5052420;28;20040;-55
2021/06/13 02:40:47;;;;;;;21.88;9.88;;;9.80;88.60;;;;;;5065983;28;20095;-53
2021/06/13 02:43:13;;;;;;;18.92;9.00;;;9.80;88.70;;;;;;5066023;28;20048;-54
2021/06/13 02:45:40;;;;;;;19.73;10.70;;;9.80;88.40;;;;;;5054989;28;20033;-54
2021/06/13 02:48:07;;;;;;;14.80;9.50;;;9.70;88.40;;;;;;5051714;28;20045;-54
2021/06/13 02:50:34;;;;;;;13.05;7.85;;;9.70;88.50;;;;;;5047002;28;20995;-55
2021/06/13 02:53:43;;;;;;;12.43;7.93;;;9.70;88.40;;;;;;5044854;28;20061;-57
2021/06/13 02:56:49;;;;;;;15.98;8.25;;;9.60;88.10;;;;;;4991271;28;20038;-54
2021/06/13 02:59:27;;;;;;;21.05;9.60;;;9.60;88.00;;;;;;4997117;28;20581;-52
2021/06/13 03:01:54;;;;;;;22.38;11.27;;;9.60;88.60;;;;;;5040815;28;20094;-52
2021/06/13 03:04:24;;;;;;;22.98;11.00;;;9.60;89.30;;;;;;5058525;28;20109;-52
2021/06/13 03:06:54;;;;;;;20.95;10.88;;;9.70;90.10;;;;;;5039073;28;20040;-55
2021/06/13 03:09:23;;;;;;;20.17;10.32;;;9.70;89.60;;;;;;5048315;28;20469;-56
2021/06/13 03:11:51;;;;;;;19.30;10.80;;;9.70;89.40;;;;;;5043230;28;20072;-55
2021/06/13 03:14:18;;;;;;;23.73;10.07;;;9.70;88.90;;;;;;5048486;28;20029;-56
2021/06/13 03:16:48;;;;;;;18.25;9.98;;;9.70;89.00;;;;;;5044463;28;20041;-56
2021/06/13 03:19:18;;;;;;;22.15;9.95;;;9.70;89.00;;;;;;5037222;28;20071;-54
2021/06/13 03:21:47;;;;;;;17.33;9.48;;;9.80;89.10;;;;;;5038963;28;20345;-55
2021/06/13 03:24:14;;;;;;;26.70;11.15;;;9.80;89.00;;;;;;5052666;28;20091;-55
2021/06/13 03:26:42;;;;;;;20.88;10.68;;;9.80;89.10;;;;;;5064043;28;20040;-53
2021/06/13 03:29:09;;;;;;;19.58;9.95;;;9.70;88.90;;;;;;5057906;28;20049;-54
2021/06/13 03:31:37;;;;;;;21.50;10.02;;;9.70;89.00;;;;;;5053932;28;20582;-51
2021/06/13 03:34:03;;;;;;;15.13;9.07;;;9.70;88.80;;;;;;5048875;28;20475;-54
2021/06/13 03:36:30;;;;;;;17.27;9.48;;;9.60;88.80;;;;;;5050725;28;20045;-56
2021/06/13 03:38:57;;;;;;;21.50;10.52;;;9.60;88.80;;;;;;5054323;28;20045;-55
2021/06/13 03:41:26;;;;;;;22.00;10.43;;;9.60;88.90;;;;;;5057872;28;20052;-56
2021/06/13 03:43:53;;;;;;;22.30;10.05;;;9.70;89.60;;;;;;5062138;28;20048;-56
2021/06/13 03:46:19;;;;;;;15.48;8.68;;;9.70;88.70;;;;;;5063636;28;20033;-55
2021/06/13 03:48:47;;;;;;;17.63;9.40;;;9.70;88.80;;;;;;5072550;28;20116;-56
2021/06/13 03:51:13;;;;;;;16.48;8.77;;;9.70;88.60;;;;;;5044931;28;20032;-54
2021/06/13 03:53:54;;;;;;;16.08;9.77;;;9.60;88.40;;;;;;5037791;28;20048;-56
2021/06/13 03:56:21;;;;;;;20.45;9.70;;;9.60;88.50;;;;;;5059902;28;20124;-53
2021/06/13 03:58:51;;;;;;;21.23;10.25;;;9.60;88.80;;;;;;5050230;28;20040;-56
2021/06/13 04:01:21;;;;;;;18.85;10.55;;;9.60;89.40;;;;;;5067819;28;20040;-56
2021/06/13 04:03:51;;;;;;;21.73;10.60;;;9.70;89.70;;;;;;5060302;28;20041;-54
2021/06/13 04:06:21;;;;;;;16.63;8.95;;;9.70;89.70;;;;;;5034336;28;20056;-54
2021/06/13 04:08:48;;;;;;;17.13;8.85;;;9.80;89.20;;;;;;5040049;28;20111;-52
2021/06/13 04:11:18;;;;;;;15.32;8.27;;;9.80;88.80;;;;;;5027163;28;20111;-56
2021/06/13 04:13:46;;;;;;;15.05;8.88;;;9.80;88.70;;;;;;5036338;28;20052;-53
2021/06/13 04:16:12;;;;;;;19.25;8.95;;;9.80;88.40;;;;;;5051749;28;20079;-52
2021/06/13 04:18:38;;;;;;;16.00;8.70;;;9.80;88.50;;;;;;5054478;28;20044;-53
2021/06/13 04:21:05;;;;;;;18.38;9.30;;;9.80;88.60;;;;;;5056695;28;20389;-54
2021/06/13 04:23:32;;;;;;;23.15;10.85;;;9.80;88.70;;;;;;5053287;28;20041;-53
2021/06/13 04:25:58;;;;;;;16.95;10.07;;;9.80;88.90;;;;;;5032065;28;20037;-53
2021/06/13 04:28:26;;;;;;;18.45;10.80;;;9.90;89.10;;;;;;5042825;28;20037;-54
2021/06/13 04:31:01;;;;;;;20.98;11.18;;;9.90;89.10;;;;;;5050117;28;20049;-52
2021/06/13 04:33:31;;;;;;;22.85;12.07;;;10.00;89.10;;;;;;5052956;28;20111;-54
2021/06/13 04:35:57;;;;;;;23.33;12.82;;;10.10;89.20;;;;;;5050866;28;20529;-50
2021/06/13 04:38:23;;;;;;;25.23;12.30;;;10.20;89.30;;;;;;5062678;28;20132;-56
2021/06/13 04:40:49;;;;;;;30.35;13.00;;;10.30;89.30;;;;;;5055513;28;20128;-53
2021/06/13 04:43:16;;;;;;;22.20;12.30;;;10.40;89.30;;;;;;5052508;28;20044;-53
2021/06/13 04:45:42;;;;;;;24.20;12.10;;;10.50;89.40;;;;;;5049975;28;20060;-53
2021/06/13 04:48:08;;;;;;;21.08;12.50;;;10.50;89.30;;;;;;5051004;28;20053;-54
2021/06/13 04:50:42;;;;;;;25.27;12.52;;;10.60;89.10;;;;;;5050211;28;20041;-51
2021/06/13 04:53:53;;;;;;;25.55;13.05;;;10.70;89.30;;;;;;5047209;28;20048;-54
2021/06/13 04:56:24;;;;;;;23.58;12.07;;;10.80;90.00;;;;;;5030790;28;20053;-51
2021/06/13 04:58:49;;;;;;;23.80;11.73;;;10.90;89.20;;;;;;5055045;28;20048;-52
2021/06/13 05:01:15;;;;;;;22.25;11.85;;;11.10;89.00;;;;;;5047286;28;20045;-56
2021/06/13 05:03:44;;;;;;;27.13;11.88;;;11.30;88.90;;;;;;5051763;28;20092;-52
2021/06/13 05:06:11;;;;;;;22.48;12.38;;;11.50;89.00;;;;;;5056387;28;20036;-55
2021/06/13 05:08:40;;;;;;;21.88;12.15;;;11.80;89.70;;;;;;5060638;28;20095;-56
2021/06/13 05:11:06;;;;;;;21.73;11.38;;;12.10;89.20;;;;;;5053944;28;20040;-55
2021/06/13 05:13:31;;;;;;;23.40;11.10;;;12.40;88.40;;;;;;5069413;28;20049;-56
2021/06/13 05:15:57;;;;;;;20.55;10.80;;;12.70;87.30;;;;;;5054435;28;20040;-56
2021/06/13 05:18:23;;;;;;;22.67;11.02;;;12.90;86.50;;;;;;5055227;28;20455;-56
2021/06/13 05:20:53;;;;;;;15.93;10.02;;;13.00;86.00;;;;;;5066281;28;20041;-57
2021/06/13 05:23:20;;;;;;;24.27;11.20;;;13.20;85.40;;;;;;5049705;28;20497;-57
2021/06/13 05:25:46;;;;;;;22.73;11.38;;;13.50;85.20;;;;;;5041805;28;20090;-56
2021/06/13 05:28:12;;;;;;;22.83;10.32;;;13.70;85.20;;;;;;5045802;28;20045;-56
2021/06/13 05:30:39;;;;;;;20.02;11.60;;;13.90;85.10;;;;;;5039350;28;20395;-56
2021/06/13 05:33:08;;;;;;;18.90;9.57;;;14.10;84.10;;;;;;5050632;28;20037;-51
2021/06/13 05:35:35;;;;;;;20.08;9.32;;;14.30;83.10;;;;;;5041462;28;20046;-52
2021/06/13 05:38:02;;;;;;;23.88;9.50;;;14.50;81.80;;;;;;5040001;28;20200;-53
2021/06/13 05:40:30;;;;;;;18.27;9.38;;;14.70;81.30;;;;;;5032234;28;20087;-56
2021/06/13 05:42:57;;;;;;;16.35;8.75;;;14.90;81.30;;;;;;5032719;28;20053;-52
2021/06/13 05:45:26;;;;;;;21.17;8.88;;;15.00;80.40;;;;;;5044527;28;20049;-53
2021/06/13 05:47:52;;;;;;;20.45;9.05;;;15.20;80.10;;;;;;5062177;28;20143;-51
2021/06/13 05:50:19;;;;;;;18.35;9.45;;;15.30;80.00;;;;;;5049859;28;20056;-55
2021/06/13 05:52:46;;;;;;;15.68;8.45;;;15.50;79.70;;;;;;5050691;28;20037;-53
2021/06/13 05:55:12;;;;;;;16.77;7.45;;;16.00;78.30;;;;;;5052371;28;20152;-55
2021/06/13 05:57:38;;;;;;;15.63;7.47;;;16.30;75.90;;;;;;5054434;28;20043;-55
2021/06/13 06:00:17;;;;;;;16.63;7.10;;;16.50;75.30;;;;;;5055416;28;20041;-52
2021/06/13 06:02:45;;;;;;;13.45;6.32;;;16.60;74.10;;;;;;5051302;28;20033;-55
2021/06/13 06:05:13;;;;;;;17.48;6.63;;;16.50;73.90;;;;;;5051833;28;20048;-54
2021/06/13 06:07:39;;;;;;;13.95;6.10;;;16.30;72.80;;;;;;5050266;28;20045;-54
2021/06/13 06:10:06;;;;;;;17.15;6.38;;;16.10;73.30;;;;;;5061204;28;20039;-54
2021/06/13 06:12:32;;;;;;;18.27;6.57;;;15.90;73.90;;;;;;5052375;28;20071;-52
2021/06/13 06:14:57;;;;;;;16.83;6.47;;;15.80;74.30;;;;;;5060354;28;20068;-54
2021/06/13 06:17:23;;;;;;;14.50;5.90;;;15.70;74.00;;;;;;5064089;28;20046;-55
2021/06/13 06:19:49;;;;;;;17.75;6.55;;;15.60;74.00;;;;;;5067329;28;20033;-53
2021/06/13 06:22:16;;;;;;;15.90;6.32;;;15.60;73.90;;;;;;5069062;28;20064;-52
2021/06/13 06:24:42;;;;;;;14.85;5.97;;;15.50;73.70;;;;;;5029974;28;20464;-55
2021/06/13 06:27:07;;;;;;;11.98;5.43;;;15.50;74.20;;;;;;5071223;28;20448;-53
2021/06/13 06:29:33;;;;;;;12.63;5.63;;;15.50;74.50;;;;;;5065197;28;20036;-52
2021/06/13 06:31:59;;;;;;;13.52;5.43;;;15.40;74.60;;;;;;5051451;28;20076;-55
2021/06/13 06:34:25;;;;;;;15.23;6.50;;;15.40;75.00;;;;;;5065588;28;20043;-54
2021/06/13 06:36:51;;;;;;;13.13;5.80;;;15.40;74.70;;;;;;5053730;28;20104;-56
2021/06/13 06:39:16;;;;;;;18.27;6.28;;;15.40;74.60;;;;;;5052307;28;20402;-52
2021/06/13 06:41:42;;;;;;;12.68;5.97;;;15.40;74.60;;;;;;5053152;28;20080;-54
2021/06/13 06:44:10;;;;;;;14.57;5.22;;;15.40;75.30;;;;;;5053457;28;20036;-54
2021/06/13 06:46:36;;;;;;;18.02;5.80;;;15.40;74.90;;;;;;5052490;28;20060;-54
2021/06/13 06:49:04;;;;;;;13.73;5.60;;;15.40;74.00;;;;;;5055462;28;20413;-54
2021/06/13 06:51:30;;;;;;;14.60;5.53;;;15.40;73.80;;;;;;5068965;28;20072;-54
2021/06/13 06:53:57;;;;;;;15.27;6.13;;;15.40;73.80;;;;;;5053289;28;20445;-56
2021/06/13 06:56:28;;;;;;;15.02;5.40;;;15.50;73.40;;;;;;5046359;28;20393;-55
2021/06/13 06:58:55;;;;;;;13.55;5.15;;;15.50;73.10;;;;;;5047063;28;20053;-54
2021/06/13 07:01:21;;;;;;;10.85;5.30;;;15.50;72.40;;;;;;5053762;28;20119;-56
2021/06/13 07:03:47;;;;;;;15.50;5.80;;;15.60;71.90;;;;;;5055713;28;20037;-56
2021/06/13 07:06:13;;;;;;;15.35;5.88;;;15.70;72.40;;;;;;5051657;28;20119;-56
2021/06/13 07:08:39;;;;;;;10.20;5.15;;;15.90;72.10;;;;;;5038430;28;20511;-54
2021/06/13 07:11:07;;;;;;;15.85;5.80;;;16.00;71.50;;;;;;5041395;28;20108;-55
2021/06/13 07:13:34;;;;;;;15.48;5.20;;;16.20;70.80;;;;;;5052794;28;20563;-55
2021/06/13 07:16:00;;;;;;;15.98;5.85;;;16.40;70.90;;;;;;5066883;28;20040;-56
2021/06/13 07:18:27;;;;;;;13.13;5.60;;;16.60;71.60;;;;;;5059669;28;20051;-54
2021/06/13 07:20:56;;;;;;;13.60;5.03;;;16.70;70.30;;;;;;5058610;28;20569;-51
2021/06/13 07:23:23;;;;;;;15.05;6.15;;;16.90;67.50;;;;;;5051435;28;20059;-52
2021/06/13 07:25:49;;;;;;;16.95;5.15;;;17.00;67.00;;;;;;5050706;28;20087;-54
2021/06/13 07:28:15;;;;;;;10.23;4.70;;;17.10;65.80;;;;;;5058176;28;20059;-54
2021/06/13 07:30:42;;;;;;;12.18;4.78;;;17.20;65.00;;;;;;5045979;28;20048;-54
2021/06/13 07:33:08;;;;;;;17.05;5.50;;;17.30;65.00;;;;;;5035463;28;20098;-54
2021/06/13 07:35:34;;;;;;;11.23;5.03;;;17.40;64.60;;;;;;5051367;28;20068;-57
2021/06/13 07:38:01;;;;;;;13.52;5.43;;;17.50;62.90;;;;;;5052600;28;20072;-57
2021/06/13 07:40:28;;;;;;;12.05;5.05;;;17.50;62.90;;;;;;5047894;28;20524;-57
2021/06/13 07:42:53;;;;;;;11.20;4.65;;;17.60;64.60;;;;;;5048548;28;20112;-57
2021/06/13 07:45:19;;;;;;;13.10;4.32;;;17.60;64.30;;;;;;5048475;28;20132;-57
2021/06/13 07:47:45;;;;;;;11.25;4.80;;;17.70;61.90;;;;;;5042164;28;20045;-57
2021/06/13 07:50:12;;;;;;;10.70;5.13;;;17.80;62.50;;;;;;5039622;28;20048;-57
2021/06/13 07:52:39;;;;;;;13.05;5.60;;;17.90;63.40;;;;;;5047735;28;20041;-57
2021/06/13 07:55:06;;;;;;;12.38;4.78;;;17.90;62.80;;;;;;5051067;28;20037;-58
2021/06/13 07:57:32;;;;;;;14.35;4.63;;;17.90;62.10;;;;;;5050187;28;20064;-57
2021/06/13 07:59:58;;;;;;;9.40;4.72;;;18.00;61.90;;;;;;5065175;28;20037;-58
2021/06/13 08:02:23;;;;;;;17.10;5.13;;;18.00;62.20;;;;;;5052106;28;20382;-57
2021/06/13 08:04:54;;;;;;;12.38;4.97;;;18.10;61.30;;;;;;5049420;28;20052;-57
2021/06/13 08:07:20;;;;;;;11.98;5.10;;;18.20;61.30;;;;;;5049209;28;20057;-57
2021/06/13 08:09:46;;;;;;;13.20;5.75;;;18.30;61.50;;;;;;5044243;28;20036;-57
2021/06/13 08:12:11;;;;;;;13.80;5.95;;;18.30;61.70;;;;;;5043558;28;20170;-57
2021/06/13 08:14:38;;;;;;;12.68;5.32;;;18.40;61.20;;;;;;5043463;28;20048;-57
2021/06/13 08:17:04;;;;;;;7.95;4.45;;;18.40;59.80;;;;;;5050771;28;20036;-57
2021/06/13 08:19:29;;;;;;;9.50;4.93;;;18.30;59.60;;;;;;5051310;28;20041;-57
2021/06/13 08:21:55;;;;;;;8.48;4.88;;;18.30;60.10;;;;;;5049640;28;20045;-57
2021/06/13 08:24:21;;;;;;;11.35;4.88;;;18.40;59.80;;;;;;5062816;28;20045;-58
2021/06/13 08:26:47;;;;;;;8.57;4.80;;;18.40;60.20;;;;;;5058850;28;20041;-56
2021/06/13 08:29:13;;;;;;;9.05;4.50;;;18.50;59.60;;;;;;5056408;28;20124;-57
2021/06/13 08:31:38;;;;;;;11.48;5.15;;;18.50;60.10;;;;;;5052199;28;20513;-57
2021/06/13 08:34:04;;;;;;;9.48;4.35;;;18.60;61.10;;;;;;5054540;28;20076;-56
2021/06/13 08:36:30;;;;;;;11.90;4.78;;;18.70;60.50;;;;;;5050563;28;20080;-57
2021/06/13 08:38:57;;;;;;;10.90;4.85;;;18.70;59.10;;;;;;5052665;28;20072;-56
2021/06/13 08:41:25;;;;;;;11.32;4.85;;;18.80;59.20;;;;;;5051803;28;20300;-56
2021/06/13 08:43:52;;;;;;;11.20;4.57;;;18.80;59.80;;;;;;5056873;28;20170;-55
2021/06/13 08:46:19;;;;;;;11.05;4.90;;;18.80;58.90;;;;;;5049636;28;20093;-56
2021/06/13 08:48:47;;;;;;;12.18;4.90;;;18.80;59.70;;;;;;5054371;28;20297;-56
2021/06/13 08:51:14;;;;;;;14.52;5.63;;;18.90;59.40;;;;;;5053379;28;20036;-56
2021/06/13 08:53:44;;;;;;;9.80;5.40;;;18.90;59.70;;;;;;5054495;28;20120;-55
2021/06/13 08:56:17;;;;;;;10.70;5.50;;;18.90;60.20;;;;;;5055036;28;20043;-55
2021/06/13 08:58:44;;;;;;;11.77;5.28;;;19.00;60.10;;;;;;5067995;28;20082;-51
2021/06/13 09:01:12;;;;;;;18.50;5.30;;;19.00;59.90;;;;;;5056981;28;20758;-55
2021/06/13 09:03:39;;;;;;;14.15;5.40;;;19.10;60.00;;;;;;5053707;28;20040;-56
2021/06/13 09:06:06;;;;;;;9.10;5.15;;;19.10;59.90;;;;;;5054167;28;20504;-52
2021/06/13 09:08:37;;;;;;;10.48;5.13;;;19.20;59.80;;;;;;5054317;28;20519;-56
2021/06/13 09:11:04;;;;;;;9.35;4.43;;;19.30;59.50;;;;;;5058514;28;20079;-55
2021/06/13 09:13:32;;;;;;;10.73;4.97;;;19.30;59.10;;;;;;5068043;28;20287;-56
2021/06/13 09:16:03;;;;;;;12.48;5.15;;;19.30;58.50;;;;;;5055640;28;20417;-54
2021/06/13 09:18:39;;;;;;;12.32;4.82;;;19.30;59.40;;;;;;5054484;28;20505;-54
2021/06/13 09:21:29;;;;;;;12.20;5.28;;;19.40;59.30;;;;;;5054062;28;20041;-56
2021/06/13 09:23:55;;;;;;;13.93;5.07;;;19.40;59.40;;;;;;5054751;28;20029;-55
2021/06/13 09:26:28;;;;;;;12.35;4.47;;;19.50;59.90;;;;;;5053434;28;20053;-55
2021/06/13 09:28:57;;;;;;;14.25;4.88;;;19.60;59.90;;;;;;5053616;28;20049;-55
2021/06/13 09:31:26;;;;;;;10.48;4.60;;;19.70;59.90;;;;;;5054817;28;20529;-54
2021/06/13 09:34:00;;;;;;;9.80;4.43;;;19.70;59.70;;;;;;5052758;28;20044;-57
2021/06/13 09:36:29;;;;;;;8.38;4.32;;;19.80;58.00;;;;;;5053239;28;20052;-52
2021/06/13 09:39:05;;;;;;;13.00;4.95;;;19.80;57.50;;;;;;5055012;28;20079;-52
2021/06/13 09:41:39;;;;;;;12.75;4.95;;;19.80;58.00;;;;;;5053919;28;20216;-54
2021/06/13 09:44:14;;;;;;;9.35;4.80;;;19.90;57.70;;;;;;5055253;28;20103;-52
2021/06/13 09:46:43;;;;;;;9.85;5.55;;;19.90;57.90;;;;;;5053149;28;20093;-53
2021/06/13 09:49:16;;;;;;;8.95;4.38;;;20.00;57.40;;;;;;5051286;28;20055;-56
2021/06/13 09:51:44;;;;;;;15.68;4.75;;;19.90;57.10;;;;;;5054362;28;20095;-55
2021/06/13 09:54:17;;;;;;;9.48;5.13;;;20.00;57.00;;;;;;5054006;28;20110;-55
2021/06/13 09:56:45;;;;;;;11.02;5.00;;;20.10;58.10;;;;;;5061952;28;20045;-55
2021/06/13 09:59:18;;;;;;;10.95;4.82;;;20.20;58.30;;;;;;5063395;28;20053;-55
2021/06/13 10:01:56;;;;;;;10.73;4.80;;;20.20;57.80;;;;;;5046092;28;20041;-54
2021/06/13 10:04:22;;;;;;;11.05;4.93;;;20.20;57.40;;;;;;5070578;28;20037;-57
2021/06/13 10:06:53;;;;;;;13.93;4.68;;;20.20;57.60;;;;;;5040289;28;20063;-54
2021/06/13 10:09:20;;;;;;;;;;;20.30;57.70;;;;;;5053060;28;20099;-52
2021/06/13 10:11:48;;;;;;;9.15;4.40;;;20.40;56.30;;;;;;5053051;28;19922;-53
2021/06/13 10:14:19;;;;;;;10.98;4.75;;;20.40;56.60;;;;;;5054086;28;20041;-56
2021/06/13 10:16:51;;;;;;;11.73;4.95;;;20.50;56.30;;;;;;5052134;28;20550;-53
2021/06/13 10:19:22;;;;;;;8.82;4.80;;;20.40;55.80;;;;;;5052501;28;20039;-56
2021/06/13 10:21:50;;;;;;;12.70;5.13;;;20.50;56.00;;;;;;5051034;28;20382;-57
2021/06/13 10:24:26;;;;;;;9.35;4.55;;;20.50;56.70;;;;;;5051748;28;20125;-55
2021/06/13 10:26:57;;;;;;;15.00;5.32;;;20.50;57.30;;;;;;5042439;28;20034;-57
2021/06/13 10:29:24;;;;;;;10.77;4.90;;;20.50;56.70;;;;;;5061863;28;20094;-57
2021/06/13 10:31:52;;;;;;;10.88;5.28;;;20.60;57.40;;;;;;5038803;28;20098;-56
2021/06/13 10:34:20;;;;;;;11.13;4.80;;;20.70;56.90;;;;;;5049962;28;20041;-56
2021/06/13 10:36:50;;;;;;;10.57;4.72;;;20.70;56.30;;;;;;5042416;28;20047;-57
2021/06/13 10:39:21;;;;;;;9.32;4.28;;;20.80;56.50;;;;;;5041958;28;20126;-57
2021/06/13 10:41:49;;;;;;;8.98;4.72;;;20.70;55.30;;;;;;5040902;28;20029;-57
2021/06/13 10:44:18;;;;;;;10.95;4.57;;;20.70;55.30;;;;;;5052887;28;20069;-58
2021/06/13 10:46:49;;;;;;;10.13;4.20;;;20.70;54.50;;;;;;5051769;28;20052;-57
2021/06/13 10:49:36;;;;;;;8.93;4.18;;;20.80;55.30;;;;;;5049125;28;20041;-57
2021/06/13 10:52:14;;;;;;;10.02;4.65;;;20.80;54.60;;;;;;5046135;28;20065;-57
2021/06/13 10:54:49;;;;;;;10.27;4.57;;;20.90;55.80;;;;;;5062066;28;20148;-57
2021/06/13 10:57:15;;;;;;;10.13;4.70;;;21.00;55.60;;;;;;5044767;28;20041;-55
2021/06/13 10:59:52;;;;;;;10.52;4.75;;;21.20;55.50;;;;;;5051161;28;20044;-57
2021/06/13 11:02:26;;;;;;;9.57;4.60;;;21.30;55.70;;;;;;5042743;28;20044;-57
2021/06/13 11:05:05;;;;;;;10.90;4.85;;;21.40;55.40;;;;;;5039189;28;20064;-58
2021/06/13 11:07:34;;;;;;;10.60;4.45;;;21.50;56.00;;;;;;5044216;28;20041;-57
2021/06/13 11:10:02;;;;;;;9.30;4.63;;;21.60;54.80;;;;;;5038379;28;20177;-57
2021/06/13 11:12:41;;;;;;;9.13;4.38;;;21.70;54.60;;;;;;5043569;28;20039;-58
2021/06/13 11:15:10;;;;;;;9.95;4.50;;;21.80;52.10;;;;;;5044422;28;20059;-58
2021/06/13 11:17:54;;;;;;;9.70;4.57;;;21.80;53.30;;;;;;5051426;28;20393;-58
2021/06/13 11:20:29;;;;;;;11.55;4.40;;;21.80;52.70;;;;;;5043596;28;20041;-58
2021/06/13 11:23:06;;;;;;;10.88;4.97;;;21.80;53.30;;;;;;5042835;28;20038;-58
2021/06/13 11:25:36;;;;;;;11.40;4.57;;;21.90;54.60;;;;;;5048477;28;20048;-58
2021/06/13 11:28:09;;;;;;;10.82;4.40;;;21.90;54.20;;;;;;5048995;28;20102;-58
2021/06/13 11:30:40;;;;;;;9.60;4.72;;;22.00;53.70;;;;;;5033212;28;20059;-57
2021/06/13 11:33:06;;;;;;;9.55;4.43;;;22.00;54.00;;;;;;5047833;28;20040;-57
2021/06/13 11:35:37;;;;;;;14.73;5.45;;;22.20;54.60;;;;;;5032722;28;20075;-58
2021/06/13 11:38:10;;;;;;;11.77;4.95;;;22.00;53.80;;;;;;5031977;28;20104;-57
2021/06/13 11:40:37;;;;;;;10.63;4.20;;;21.70;53.30;;;;;;5044062;28;20041;-57
2021/06/13 11:43:11;;;;;;;10.57;4.95;;;21.60;54.40;;;;;;5048386;28;20123;-58
2021/06/13 11:45:37;;;;;;;10.80;4.47;;;21.50;54.80;;;;;;5044081;28;20037;-57
2021/06/13 11:48:26;;;;;;;9.60;4.20;;;21.60;54.60;;;;;;5051577;28;20141;-56
2021/06/13 11:51:00;;;;;;;10.98;4.15;;;21.70;54.50;;;;;;5042564;28;20072;-57
2021/06/13 11:53:54;;;;;;;10.90;5.20;;;21.90;55.30;;;;;;5044614;28;20550;-58
2021/06/13 11:56:36;;;;;;;10.20;4.80;;;21.80;54.10;;;;;;5046472;28;20049;-58
2021/06/13 11:59:01;;;;;;;12.53;4.73;;;21.90;54.00;;;;;;5031005;28;20041;-57
2021/06/13 12:01:28;;;;;;;10.52;4.50;;;21.90;54.30;;;;;;5044578;28;20303;-56
2021/06/13 12:03:55;;;;;;;8.68;4.38;;;22.00;53.80;;;;;;5037374;28;20033;-57
2021/06/13 12:06:22;;;;;;;8.30;4.50;;;22.10;54.00;;;;;;5035631;28;20497;-57
2021/06/13 12:08:51;;;;;;;12.20;4.55;;;22.20;53.50;;;;;;5043513;28;20046;-58
2021/06/13 12:11:37;;;;;;;10.57;4.38;;;22.20;53.10;;;;;;5050518;28;20056;-58
2021/06/13 12:14:35;;;;;;;10.40;4.43;;;22.20;53.20;;;;;;5042686;28;20148;-57
2021/06/13 12:17:10;;;;;;;11.70;4.55;;;22.20;52.90;;;;;;5036007;28;20056;-58
2021/06/13 12:20:04;;;;;;;9.85;4.68;;;22.30;52.40;;;;;;5044174;28;20033;-57
2021/06/13 12:22:39;;;;;;;11.00;4.45;;;22.30;51.60;;;;;;5047974;28;20053;-58
2021/06/13 12:28:07;;;;;;;8.85;4.18;;;22.40;50.40;;;;;;5050088;28;20060;-58
2021/06/13 12:30:37;;;;;;;8.63;3.83;;;22.30;51.50;;;;;;5043713;28;20045;-57
2021/06/13 12:33:09;;;;;;;8.63;4.15;;;22.40;51.90;;;;;;5066701;28;20098;-57
2021/06/13 12:35:46;;;;;;;10.10;3.92;;;22.50;52.60;;;;;;5045636;28;20095;-58
2021/06/13 12:38:24;;;;;;;9.30;4.20;;;22.50;51.20;;;;;;5048804;28;20045;-57
2021/06/13 12:40:50;;;;;;;8.48;3.70;;;22.50;51.50;;;;;;5051121;28;20029;-57
2021/06/13 12:43:29;;;;;;;6.22;3.33;;;22.40;50.50;;;;;;5045793;28;20041;-57
2021/06/13 12:45:55;;;;;;;7.30;3.85;;;22.40;51.50;;;;;;5041843;28;20040;-57
2021/06/13 12:48:21;;;;;;;8.23;3.90;;;22.50;51.30;;;;;;5051617;28;20083;-57
2021/06/13 12:50:47;;;;;;;12.68;4.32;;;22.60;51.90;;;;;;5043813;28;20025;-58
2021/06/13 12:53:17;;;;;;;8.10;3.90;;;22.60;50.70;;;;;;5049334;28;20124;-58